Time;durP1;ratioP1;P1;durP2;ratioP2;P2;SDS_P1;SDS_P2;PMS_P1;PMS_P2;Temp;Humidity;BMP_temperature;BMP_pressure;BME280_temperature;BME280_humidity;BME280_pressure;Samples;Min_cycle;Max_cycle;Signal;HPM_P1;HPM_P2
2023/09/12 00:00:18;;;;;;;;;;;;;;;18.30;37.55;99871.34;3157439;28;20081;-66
2023/09/12 00:01:50;;;;;;;;;;;;;;;18.30;37.41;99869.56;3142488;28;19925;-66
2023/09/12 00:03:21;;;;;;;;;;;;;;;18.32;37.32;99866.81;3145536;28;19932;-65
2023/09/12 00:04:52;;;;;;;;;;;;;;;18.34;37.21;99873.66;3151329;28;19940;-66
2023/09/12 00:06:24;;;;;;;;;;;;;;;18.36;37.12;99862.97;3140102;28;19954;-65
2023/09/12 00:07:54;;;;;;;;;;;;;;;18.34;37.28;99864.91;3151226;28;19931;-65
2023/09/12 00:09:27;;;;;;;;;;;;;;;18.34;37.13;99865.75;3158464;28;20393;-66
2023/09/12 00:11:00;;;;;;;;;;;;;;;18.34;37.18;99868.38;3153458;28;20432;-65
2023/09/12 00:12:31;;;;;;;;;;;;;;;18.33;37.13;99874.59;3145963;28;19925;-66
2023/09/12 00:14:02;;;;;;;;;;;;;;;18.30;37.52;99874.00;3149315;28;19924;-66
2023/09/12 00:15:33;;;;;;;;;;;;;;;18.28;37.44;99873.25;3156401;28;19928;-65
2023/09/12 00:17:05;;;;;;;;;;;;;;;18.30;37.33;99874.00;3145386;28;20308;-65
2023/09/12 00:18:35;;;;;;;;;;;;;;;18.29;37.49;99875.78;3146616;28;19929;-66
2023/09/12 00:20:08;;;;;;;;;;;;;;;18.31;37.55;99878.28;3152634;28;19932;-66
2023/09/12 00:21:38;;;;;;;;;;;;;;;18.29;37.50;99870.53;3146034;28;20016;-66
2023/09/12 00:23:10;;;;;;;;;;;;;;;18.30;37.61;99880.09;3157472;28;19924;-66
2023/09/12 00:24:40;;;;;;;;;;;;;;;18.29;37.65;99878.44;3147655;28;19936;-66
2023/09/12 00:26:13;;;;;;;;;;;;;;;18.27;37.82;99877.69;3155787;28;19928;-66
2023/09/12 00:27:44;;;;;;;;;;;;;;;18.24;37.78;99882.38;3158502;28;20390;-66
2023/09/12 00:29:15;;;;;;;;;;;;;;;18.22;37.81;99879.88;3158478;28;19924;-66
2023/09/12 00:30:46;;;;;;;;;;;;;;;18.18;37.92;99879.22;3152201;28;19928;-66
2023/09/12 00:32:18;;;;;;;;;;;;;;;18.15;38.01;99874.19;3150934;28;19928;-67
2023/09/12 00:33:48;;;;;;;;;;;;;;;18.19;38.07;99886.19;3154156;28;20321;-66
2023/09/12 00:35:20;;;;;;;;;;;;;;;18.22;38.27;99890.41;3145636;28;19939;-66
2023/09/12 00:36:50;;;;;;;;;;;;;;;18.23;38.04;99893.88;3145504;28;20363;-66
2023/09/12 00:38:22;;;;;;;;;;;;;;;18.17;38.35;99890.75;3146064;28;19924;-66
2023/09/12 00:39:52;;;;;;;;;;;;;;;18.14;38.54;99893.59;3146751;28;19928;-66
2023/09/12 00:41:25;;;;;;;;;;;;;;;18.15;38.40;99889.16;3158481;28;20397;-65
2023/09/12 00:42:56;;;;;;;;;;;;;;;18.18;38.40;99883.66;3145893;28;19924;-65
2023/09/12 00:44:27;;;;;;;;;;;;;;;18.13;38.44;99878.75;3145497;28;20470;-65
2023/09/12 00:45:58;;;;;;;;;;;;;;;18.18;38.52;99888.94;3145732;28;19982;-65
2023/09/12 00:47:30;;;;;;;;;;;;;;;18.14;38.49;99880.44;3145656;28;19946;-65
2023/09/12 00:49:03;;;;;;;;;;;;;;;18.13;38.62;99888.44;3154842;28;20348;-65
2023/09/12 00:50:34;;;;;;;;;;;;;;;18.13;38.77;99888.44;3144440;28;20390;-65
2023/09/12 00:52:07;;;;;;;;;;;;;;;18.12;38.78;99892.03;3141021;28;19999;-65
2023/09/12 00:53:38;;;;;;;;;;;;;;;18.10;38.88;99891.31;3145511;28;20263;-65
2023/09/12 00:55:09;;;;;;;;;;;;;;;18.06;38.82;99890.69;3145482;28;19931;-65
2023/09/12 00:56:42;;;;;;;;;;;;;;;18.06;39.16;99885.44;3145595;28;19932;-65
2023/09/12 00:58:14;;;;;;;;;;;;;;;18.04;39.21;99887.31;3145540;28;20390;-65
2023/09/12 00:59:46;;;;;;;;;;;;;;;18.03;39.21;99890.09;3145535;28;20334;-65
2023/09/12 01:01:17;;;;;;;;;;;;;;;18.02;39.45;99891.91;3147407;28;19928;-64
2023/09/12 01:02:49;;;;;;;;;;;;;;;18.00;39.35;99891.16;3155472;28;19934;-65
2023/09/12 01:04:20;;;;;;;;;;;;;;;17.99;39.63;99891.28;3147528;28;19947;-65
2023/09/12 01:05:52;;;;;;;;;;;;;;;17.96;39.38;99887.09;3140443;28;19924;-65
2023/09/12 01:07:22;;;;;;;;;;;;;;;17.95;39.49;99891.53;3145809;28;20318;-65
2023/09/12 01:08:54;;;;;;;;;;;;;;;17.93;39.51;99890.78;3158026;28;19924;-66
2023/09/12 01:10:25;;;;;;;;;;;;;;;17.92;39.76;99888.25;3145544;28;19928;-65
2023/09/12 01:11:58;;;;;;;;;;;;;;;17.92;39.61;99885.63;3145312;28;20055;-65
2023/09/12 01:13:29;;;;;;;;;;;;;;;17.90;39.93;99890.19;3156393;28;20362;-65
2023/09/12 01:15:00;;;;;;;;;;;;;;;17.86;40.01;99886.06;3156792;28;19924;-65
2023/09/12 01:16:32;;;;;;;;;;;;;;;17.86;39.91;99891.34;3144980;28;19947;-65
2023/09/12 01:18:03;;;;;;;;;;;;;;;17.84;40.16;99888.84;3145623;28;19936;-65
2023/09/12 01:19:34;;;;;;;;;;;;;;;17.81;40.15;99890.84;3144902;28;19931;-65
2023/09/12 01:21:12;;;;;;;;;;;;;;;17.79;40.27;99895.41;3140266;28;20027;-65
2023/09/12 01:22:56;;;;;;;;;;;;;;;17.77;40.18;99900.72;3152146;28;19928;-65
2023/09/12 01:24:45;;;;;;;;;;;;;;;17.74;40.49;99898.31;3157462;28;19925;-65
2023/09/12 01:26:35;;;;;;;;;;;;;;;17.70;40.60;99896.88;3148500;28;19931;-65
2023/09/12 01:28:10;;;;;;;;;;;;;;;17.64;40.71;99899.97;3156253;28;19928;-65
2023/09/12 01:29:41;;;;;;;;;;;;;;;17.60;40.78;99899.34;3155948;28;20007;-66
2023/09/12 01:31:13;;;;;;;;;;;;;;;17.56;41.07;99897.88;3145058;28;20446;-65
2023/09/12 01:32:44;;;;;;;;;;;;;;;17.49;41.17;99904.53;3145508;28;20385;-65
2023/09/12 01:34:16;;;;;;;;;;;;;;;17.42;41.40;99900.66;3145457;28;19924;-65
2023/09/12 01:35:46;;;;;;;;;;;;;;;17.37;41.52;99897.53;3145161;28;19934;-66
2023/09/12 01:37:18;;;;;;;;;;;;;;;17.33;41.82;99906.59;3146078;28;20313;-65
2023/09/12 01:38:50;;;;;;;;;;;;;;;17.29;41.79;99898.06;3145227;28;19928;-64
2023/09/12 01:40:24;;;;;;;;;;;;;;;17.27;41.95;99899.97;3150155;28;19924;-65
2023/09/12 01:41:55;;;;;;;;;;;;;;;17.24;41.77;99898.41;3153512;28;19948;-65
2023/09/12 01:43:29;;;;;;;;;;;;;;;17.18;42.33;99900.63;3148690;28;19939;-65
2023/09/12 01:45:02;;;;;;;;;;;;;;;17.08;42.78;99908.34;3150386;28;19924;-65
2023/09/12 01:46:34;;;;;;;;;;;;;;;17.02;42.95;99904.34;3147623;28;19928;-65
2023/09/12 01:48:06;;;;;;;;;;;;;;;16.99;42.68;99903.72;3156068;28;20375;-65
2023/09/12 01:49:39;;;;;;;;;;;;;;;17.00;42.70;99902.75;3145276;28;20129;-65
2023/09/12 01:51:11;;;;;;;;;;;;;;;17.01;42.96;99901.84;3133600;28;20302;-66
2023/09/12 01:52:42;;;;;;;;;;;;;;;17.03;42.90;99902.53;3145181;28;20313;-64
2023/09/12 01:54:15;;;;;;;;;;;;;;;17.08;42.69;99910.13;3157689;28;19979;-65
2023/09/12 01:55:46;;;;;;;;;;;;;;;17.10;42.35;99910.88;3154977;28;19931;-64
2023/09/12 01:57:20;;;;;;;;;;;;;;;17.13;42.48;99908.84;3156262;28;19928;-64
2023/09/12 01:58:53;;;;;;;;;;;;;;;17.16;42.29;99915.69;3146495;28;20113;-65
2023/09/12 02:00:24;;;;;;;;;;;;;;;17.16;42.44;99913.06;3151886;28;20355;-65
2023/09/12 02:01:55;;;;;;;;;;;;;;;17.15;42.60;99903.47;3151504;28;19924;-65
2023/09/12 02:03:26;;;;;;;;;;;;;;;17.16;42.51;99911.28;3157786;28;19932;-66
2023/09/12 02:05:05;;;;;;;;;;;;;;;17.18;42.52;99908.50;3147740;28;19928;-66
2023/09/12 02:06:37;;;;;;;;;;;;;;;17.20;42.47;99914.53;3140087;28;19929;-65
2023/09/12 02:08:08;;;;;;;;;;;;;;;17.23;42.45;99911.66;3151829;28;19947;-65
2023/09/12 02:09:39;;;;;;;;;;;;;;;17.23;42.36;99906.41;3157276;28;19932;-65
2023/09/12 02:11:10;;;;;;;;;;;;;;;17.22;42.41;99907.38;3152283;28;19931;-65
2023/09/12 02:12:41;;;;;;;;;;;;;;;17.19;42.67;99908.41;3149219;28;20318;-65
2023/09/12 02:14:14;;;;;;;;;;;;;;;17.15;42.66;99901.69;3149837;28;19935;-64
2023/09/12 02:15:44;;;;;;;;;;;;;;;17.10;42.95;99911.72;3144428;28;19940;-64
2023/09/12 02:17:16;;;;;;;;;;;;;;;17.10;42.77;99905.59;3146508;28;19925;-65
2023/09/12 02:18:46;;;;;;;;;;;;;;;17.10;42.67;99908.25;3157273;28;20312;-65
2023/09/12 02:20:18;;;;;;;;;;;;;;;17.06;43.03;99905.78;3148553;28;19943;-65
2023/09/12 02:21:49;;;;;;;;;;;;;;;17.10;42.83;99905.59;3144719;28;19932;-65
2023/09/12 02:23:21;;;;;;;;;;;;;;;17.11;42.74;99902.00;3156986;28;19928;-65
2023/09/12 02:24:52;;;;;;;;;;;;;;;17.09;42.82;99906.53;3157273;28;19935;-64
2023/09/12 02:26:23;;;;;;;;;;;;;;;17.08;43.07;99908.34;3157905;28;20312;-64
2023/09/12 02:27:54;;;;;;;;;;;;;;;17.07;43.20;99906.66;3156944;28;19931;-64
2023/09/12 02:29:27;;;;;;;;;;;;;;;17.06;43.00;99911.06;3144760;28;20389;-65
2023/09/12 02:30:57;;;;;;;;;;;;;;;17.05;43.29;99909.38;3152698;28;19928;-65
2023/09/12 02:32:29;;;;;;;;;;;;;;;17.02;43.12;99908.75;3159140;28;19999;-64
2023/09/12 02:34:01;;;;;;;;;;;;;;;17.02;43.38;99906.13;3153591;28;19931;-65
2023/09/12 02:35:31;;;;;;;;;;;;;;;17.00;43.40;99911.50;3146898;28;19988;-65
2023/09/12 02:37:03;;;;;;;;;;;;;;;16.97;43.59;99910.88;3147919;28;19928;-65
2023/09/12 02:38:35;;;;;;;;;;;;;;;16.93;43.82;99905.00;3150613;28;19987;-65
2023/09/12 02:40:07;;;;;;;;;;;;;;;16.92;43.70;99912.97;3156872;28;19932;-65
2023/09/12 02:41:38;;;;;;;;;;;;;;;16.90;43.86;99905.19;3147035;28;19932;-65
2023/09/12 02:43:09;;;;;;;;;;;;;;;16.89;44.14;99903.53;3147989;28;20161;-65
2023/09/12 02:44:41;;;;;;;;;;;;;;;16.90;43.97;99905.19;3155323;28;19924;-64
2023/09/12 02:46:13;;;;;;;;;;;;;;;16.92;44.01;99905.94;3147454;28;20023;-64
2023/09/12 02:47:45;;;;;;;;;;;;;;;16.93;43.87;99904.16;3159339;28;19931;-65
2023/09/12 02:49:16;;;;;;;;;;;;;;;16.91;44.01;99901.63;3159473;28;19931;-65
2023/09/12 02:50:47;;;;;;;;;;;;;;;16.91;44.11;99901.63;3139415;28;20003;-65
2023/09/12 02:52:18;;;;;;;;;;;;;;;16.89;44.07;99900.91;3149257;28;19933;-64
2023/09/12 02:53:49;;;;;;;;;;;;;;;16.88;44.36;99896.56;3146813;28;19925;-64
2023/09/12 02:55:22;;;;;;;;;;;;;;;16.88;44.16;99899.19;3146199;28;20202;-64
2023/09/12 02:56:53;;;;;;;;;;;;;;;16.88;44.20;99899.19;3146872;28;19928;-64
2023/09/12 02:58:24;;;;;;;;;;;;;;;16.88;44.56;99896.56;3152924;28;20393;-64
2023/09/12 02:59:56;;;;;;;;;;;;;;;16.88;44.40;99904.47;3160036;28;19931;-64
2023/09/12 03:01:28;;;;;;;;;;;;;;;16.87;44.66;99905.41;3148299;28;19928;-64
2023/09/12 03:02:58;;;;;;;;;;;;;;;16.87;44.66;99910.69;3154850;28;20316;-64
2023/09/12 03:04:30;;;;;;;;;;;;;;;16.86;44.53;99905.50;3150026;28;19924;-64
2023/09/12 03:06:02;;;;;;;;;;;;;;;16.83;44.85;99901.34;3140685;28;20413;-64
2023/09/12 03:07:34;;;;;;;;;;;;;;;16.80;44.76;99905.00;3146486;28;19935;-64
2023/09/12 03:09:04;;;;;;;;;;;;;;;16.77;45.00;99904.34;3147545;28;19924;-64
2023/09/12 03:10:36;;;;;;;;;;;;;;;16.75;45.10;99900.97;3158682;28;20346;-64
2023/09/12 03:12:06;;;;;;;;;;;;;;;16.75;45.20;99914.13;3137699;28;19959;-65
2023/09/12 03:13:38;;;;;;;;;;;;;;;16.73;45.15;99903.69;3146356;28;19932;-65
2023/09/12 03:15:11;;;;;;;;;;;;;;;16.72;45.13;99915.19;3146635;28;19960;-65
2023/09/12 03:16:42;;;;;;;;;;;;;;;16.71;45.03;99910.88;3156758;28;20852;-65
2023/09/12 03:18:13;;;;;;;;;;;;;;;16.73;45.19;99903.69;3159731;28;19928;-65
2023/09/12 03:19:44;;;;;;;;;;;;;;;16.75;45.22;99912.34;3150495;28;19931;-65
2023/09/12 03:21:15;;;;;;;;;;;;;;;16.76;45.01;99911.41;3153962;28;19931;-65
2023/09/12 03:22:47;;;;;;;;;;;;;;;16.77;44.96;99913.13;3152699;28;19924;-65
2023/09/12 03:24:18;;;;;;;;;;;;;;;16.78;44.96;99919.22;3153299;28;19932;-65
2023/09/12 03:25:50;;;;;;;;;;;;;;;16.75;45.03;99914.13;3159041;28;20370;-64
2023/09/12 03:27:20;;;;;;;;;;;;;;;16.74;45.10;99921.19;3150790;28;19928;-65
2023/09/12 03:28:52;;;;;;;;;;;;;;;16.74;45.00;99922.94;3150029;28;19936;-65
2023/09/12 03:30:24;;;;;;;;;;;;;;;16.74;45.10;99922.94;3144010;28;19936;-65
2023/09/12 03:31:56;;;;;;;;;;;;;;;16.75;45.06;99922.03;3151916;28;19928;-65
2023/09/12 03:33:26;;;;;;;;;;;;;;;16.75;45.11;99924.66;3142483;28;20009;-64
2023/09/12 03:34:58;;;;;;;;;;;;;;;16.76;45.22;99923.72;3144299;28;20108;-65
2023/09/12 03:36:29;;;;;;;;;;;;;;;16.75;45.41;99927.28;3153959;28;19927;-64
2023/09/12 03:38:00;;;;;;;;;;;;;;;16.74;45.15;99928.22;3142520;28;19932;-65
2023/09/12 03:39:32;;;;;;;;;;;;;;;16.74;45.38;99922.94;3140829;28;20085;-65
2023/09/12 03:41:03;;;;;;;;;;;;;;;16.75;45.29;99922.03;3140993;28;20374;-65
2023/09/12 03:42:34;;;;;;;;;;;;;;;16.73;45.24;99926.53;3150844;28;20043;-65
2023/09/12 03:44:05;;;;;;;;;;;;;;;16.71;45.38;99931.03;3144624;28;19951;-65
2023/09/12 03:45:38;;;;;;;;;;;;;;;16.67;45.41;99921.69;3140959;28;19933;-65
2023/09/12 03:47:09;;;;;;;;;;;;;;;16.65;45.59;99923.56;3141318;28;20104;-65
2023/09/12 03:48:40;;;;;;;;;;;;;;;16.60;45.70;99930.00;3141085;28;20338;-65
2023/09/12 03:50:11;;;;;;;;;;;;;;;16.53;46.12;99926.13;3137207;28;20345;-65
2023/09/12 03:51:42;;;;;;;;;;;;;;;16.45;46.21;99936.31;3133419;28;19928;-65
2023/09/12 03:53:13;;;;;;;;;;;;;;;16.36;46.60;99931.66;3140972;28;19935;-65
2023/09/12 03:54:45;;;;;;;;;;;;;;;16.30;46.65;99940.81;3144339;28;19928;-65
2023/09/12 03:56:16;;;;;;;;;;;;;;;16.26;46.82;99941.09;3146947;28;20373;-65
2023/09/12 03:57:47;;;;;;;;;;;;;;;16.21;47.15;99937.94;3142607;28;19935;-65
2023/09/12 03:59:18;;;;;;;;;;;;;;;16.14;47.43;99938.34;3152274;28;19932;-65
2023/09/12 04:00:51;;;;;;;;;;;;;;;16.11;47.66;99941.16;3135974;28;19994;-65
2023/09/12 04:02:21;;;;;;;;;;;;;;;16.06;47.64;99945.91;3129080;28;20364;-65
2023/09/12 04:03:53;;;;;;;;;;;;;;;16.01;47.84;99942.72;3152367;28;19928;-66
2023/09/12 04:05:24;;;;;;;;;;;;;;;16.00;47.97;99943.69;3136405;28;19929;-66
2023/09/12 04:06:56;;;;;;;;;;;;;;;16.03;47.96;99940.84;3138837;28;19940;-66
2023/09/12 04:08:26;;;;;;;;;;;;;;;16.05;47.78;99943.34;3150609;28;19981;-65
2023/09/12 04:09:58;;;;;;;;;;;;;;;16.05;47.63;99944.19;3152228;28;19936;-67
2023/09/12 04:11:30;;;;;;;;;;;;;;;16.06;47.90;99945.91;3149152;28;19931;-66
2023/09/12 04:13:00;;;;;;;;;;;;;;;16.07;47.71;99942.31;3145067;28;20488;-67
2023/09/12 04:14:32;;;;;;;;;;;;;;;16.10;47.69;99949.16;3146973;28;19935;-71
2023/09/12 04:16:04;;;;;;;;;;;;;;;16.13;47.56;99944.53;3150912;28;19928;-69
2023/09/12 04:17:36;;;;;;;;;;;;;;;16.17;47.67;99953.06;3149995;28;19990;-71
2023/09/12 04:19:07;;;;;;;;;;;;;;;16.20;47.49;99949.38;3141157;28;19967;-65
2023/09/12 04:20:38;;;;;;;;;;;;;;;16.23;47.58;99951.81;3140601;28;20788;-68
2023/09/12 04:22:09;;;;;;;;;;;;;;;16.24;47.53;99953.47;3150659;28;20290;-66
2023/09/12 04:23:40;;;;;;;;;;;;;;;16.25;47.61;99950.78;3150771;28;20021;-69
2023/09/12 04:25:11;;;;;;;;;;;;;;;16.28;47.51;99952.34;3145338;28;20463;-67
2023/09/12 04:26:43;;;;;;;;;;;;;;;16.31;47.35;99945.09;3146046;28;19998;-69
2023/09/12 04:28:14;;;;;;;;;;;;;;;16.35;47.36;99945.72;3153362;28;20005;-65
2023/09/12 04:29:46;;;;;;;;;;;;;;;16.39;47.32;99947.22;3142289;28;19982;-65
2023/09/12 04:31:18;;;;;;;;;;;;;;;16.43;47.39;99948.69;3140558;28;19928;-69
2023/09/12 04:32:49;;;;;;;;;;;;;;;16.46;47.20;99945.03;3140697;28;19964;-68
2023/09/12 04:34:21;;;;;;;;;;;;;;;16.49;47.25;99952.72;3136816;28;19932;-69
2023/09/12 04:35:52;;;;;;;;;;;;;;;16.51;47.25;99940.31;3137439;28;19932;-68
2023/09/12 04:37:23;;;;;;;;;;;;;;;16.53;47.02;99948.91;3141179;28;19936;-69
2023/09/12 04:38:54;;;;;;;;;;;;;;;16.55;47.12;99952.28;3148867;28;19931;-72
2023/09/12 04:40:25;;;;;;;;;;;;;;;16.58;47.14;99952.09;3140760;28;20430;-71
2023/09/12 04:41:56;;;;;;;;;;;;;;;16.60;47.14;99950.19;3135184;28;19928;-71
2023/09/12 04:43:28;;;;;;;;;;;;;;;16.60;47.08;99944.94;3141054;28;19935;-71
2023/09/12 04:44:58;;;;;;;;;;;;;;;16.60;47.14;99952.84;3145656;28;19932;-73
2023/09/12 04:46:31;;;;;;;;;;;;;;;16.61;47.26;99944.00;3148287;28;19934;-72
2023/09/12 04:48:02;;;;;;;;;;;;;;;16.64;47.22;99948.19;3150025;28;19928;-71
2023/09/12 04:49:34;;;;;;;;;;;;;;;16.66;47.10;99951.56;3151598;28;19928;-71
2023/09/12 04:51:06;;;;;;;;;;;;;;;16.64;47.17;99950.84;3134229;28;20002;-66
2023/09/12 04:52:36;;;;;;;;;;;;;;;16.56;47.53;99949.56;3131491;28;19932;-65
2023/09/12 04:54:08;;;;;;;;;;;;;;;16.49;47.66;99950.91;3126238;28;19987;-65
2023/09/12 04:55:39;;;;;;;;;;;;;;;16.45;47.91;99954.72;3136962;28;19928;-70
2023/09/12 04:57:10;;;;;;;;;;;;;;;16.38;48.14;99948.16;3139723;28;20042;-70
2023/09/12 04:58:41;;;;;;;;;;;;;;;16.37;48.04;99951.75;3135413;28;19940;-72
2023/09/12 05:00:13;;;;;;;;;;;;;;;16.37;48.23;99954.38;3147301;28;19976;-67
2023/09/12 05:01:45;;;;;;;;;;;;;;;16.34;48.13;99949.31;3140531;28;20030;-71
2023/09/12 05:03:17;;;;;;;;;;;;;;;16.28;48.31;99953.19;3147098;28;19928;-70
2023/09/12 05:04:48;;;;;;;;;;;;;;;16.27;48.35;99953.31;3139276;28;19944;-74
2023/09/12 05:06:19;;;;;;;;;;;;;;;16.24;48.54;99950.84;3131837;28;19979;-69
2023/09/12 05:07:51;;;;;;;;;;;;;;;16.19;48.69;99951.19;3135965;28;19928;-67
2023/09/12 05:09:23;;;;;;;;;;;;;;;16.15;48.78;99952.34;3142478;28;19929;-70
2023/09/12 05:10:53;;;;;;;;;;;;;;;16.08;49.26;99951.03;3148006;28;19929;-69
2023/09/12 05:12:25;;;;;;;;;;;;;;;16.06;49.08;99952.91;3151615;28;20015;-71
2023/09/12 05:13:56;;;;;;;;;;;;;;;16.08;49.15;99949.25;3140549;28;19929;-73
2023/09/12 05:15:28;;;;;;;;;;;;;;;16.11;48.89;99945.59;3152935;28;19935;-71
2023/09/12 05:17:01;;;;;;;;;;;;;;;16.16;48.78;99954.00;3140151;28;20032;-70
2023/09/12 05:18:33;;;;;;;;;;;;;;;16.16;48.82;99956.63;3151344;28;19932;-72
2023/09/12 05:20:05;;;;;;;;;;;;;;;16.17;49.14;99952.22;3146669;28;20424;-75
2023/09/12 05:21:36;;;;;;;;;;;;;;;16.18;48.84;99953.91;3135532;28;19928;-75
2023/09/12 05:23:08;;;;;;;;;;;;;;;16.18;48.84;99949.50;3127975;28;19940;-71
2023/09/12 05:24:39;;;;;;;;;;;;;;;16.20;49.01;99954.66;3151596;28;20462;-70
2023/09/12 05:26:11;;;;;;;;;;;;;;;16.20;49.01;99949.38;3152043;28;19928;-68
2023/09/12 05:27:42;;;;;;;;;;;;;;;16.24;49.05;99950.84;3148361;28;19936;-71
2023/09/12 05:29:13;;;;;;;;;;;;;;;16.28;48.93;99953.19;3145346;28;19978;-75
2023/09/12 05:30:44;;;;;;;;;;;;;;;16.32;49.06;99948.56;3139881;28;20001;-71
2023/09/12 05:32:17;;;;;;;;;;;;;;;16.34;49.02;99949.31;3139930;28;20019;-71
2023/09/12 05:33:48;;;;;;;;;;;;;;;16.37;48.94;99949.94;3139225;28;19995;-75
2023/09/12 05:35:20;;;;;;;;;;;;;;;16.43;49.06;99951.34;3127516;28;19940;-73
2023/09/12 05:36:51;;;;;;;;;;;;;;;16.50;48.95;99949.13;3139030;28;19997;-69
2023/09/12 05:38:23;;;;;;;;;;;;;;;16.60;49.11;99948.41;3139977;28;19928;-71
2023/09/12 05:39:53;;;;;;;;;;;;;;;16.70;48.96;99945.16;3139785;28;19932;-71
2023/09/12 05:41:25;;;;;;;;;;;;;;;16.88;48.79;99950.97;3141597;28;19993;-68
2023/09/12 05:42:56;;;;;;;;;;;;;;;17.03;48.74;99952.53;3148072;28;19943;-65
2023/09/12 05:44:27;;;;;;;;;;;;;;;17.20;48.53;99946.94;3144141;28;19963;-68
2023/09/12 05:45:58;;;;;;;;;;;;;;;17.39;48.00;99943.88;3146931;28;19928;-68
2023/09/12 05:47:31;;;;;;;;;;;;;;;17.55;47.75;99948.03;3130813;28;19993;-68
2023/09/12 05:49:03;;;;;;;;;;;;;;;17.69;47.89;99939.97;3135411;28;19929;-69
2023/09/12 05:50:35;;;;;;;;;;;;;;;17.84;47.67;99938.06;3132737;28;19981;-69
2023/09/12 05:52:05;;;;;;;;;;;;;;;18.01;47.60;99939.44;3145222;28;19928;-68
2023/09/12 05:53:37;;;;;;;;;;;;;;;18.17;47.32;99940.81;3139644;28;20313;-69
2023/09/12 05:55:08;;;;;;;;;;;;;;;18.38;46.99;99943.63;3143445;28;20440;-70
2023/09/12 05:56:40;;;;;;;;;;;;;;;18.59;46.64;99935.06;3134886;28;19937;-70
2023/09/12 05:58:11;;;;;;;;;;;;;;;18.79;46.40;99937.03;3136239;28;20002;-68
2023/09/12 05:59:43;;;;;;;;;;;;;;;18.95;46.24;99935.84;3139773;28;20019;-67
2023/09/12 06:01:14;;;;;;;;;;;;;;;19.10;45.85;99937.28;3138851;28;19928;-67
2023/09/12 06:02:47;;;;;;;;;;;;;;;19.18;45.54;99936.69;3146115;28;20007;-67
2023/09/12 06:04:19;;;;;;;;;;;;;;;19.14;45.66;99932.59;3146880;28;19929;-68
2023/09/12 06:05:50;;;;;;;;;;;;;;;19.17;45.40;99938.50;3136899;28;19989;-67
2023/09/12 06:07:21;;;;;;;;;;;;;;;19.11;45.63;99944.25;3140623;28;20381;-66
2023/09/12 06:08:53;;;;;;;;;;;;;;;19.09;45.42;99938.25;3154609;28;19928;-67
2023/09/12 06:10:24;;;;;;;;;;;;;;;19.13;45.34;99949.41;3148865;28;19932;-66
2023/09/12 06:11:56;;;;;;;;;;;;;;;19.08;45.45;99949.78;3131135;28;20469;-67
2023/09/12 06:13:26;;;;;;;;;;;;;;;19.03;45.30;99950.13;3138995;28;19928;-67
2023/09/12 06:14:58;;;;;;;;;;;;;;;19.07;45.45;99948.09;3143975;28;19928;-67
2023/09/12 06:16:30;;;;;;;;;;;;;;;19.11;45.32;99952.19;3141361;28;19932;-66
2023/09/12 06:18:02;;;;;;;;;;;;;;;19.17;45.22;99951.69;3144204;28;19963;-69
2023/09/12 06:19:34;;;;;;;;;;;;;;;19.23;45.22;99947.75;3153805;28;20706;-68
2023/09/12 06:21:08;;;;;;;;;;;;;;;19.33;45.09;99943.38;3131221;28;19936;-69
2023/09/12 06:22:39;;;;;;;;;;;;;;;19.43;44.87;99947.00;3142375;28;20632;-69
2023/09/12 06:24:11;;;;;;;;;;;;;;;19.48;44.81;99950.09;3142626;28;19936;-68
2023/09/12 06:25:43;;;;;;;;;;;;;;;19.61;44.69;99951.75;3153467;28;20426;-67
2023/09/12 06:27:18;;;;;;;;;;;;;;;19.74;44.54;99955.97;3154657;28;19928;-65
2023/09/12 06:28:50;;;;;;;;;;;;;;;19.90;44.35;99947.59;3151550;28;19983;-68
2023/09/12 06:30:20;;;;;;;;;;;;;;;20.04;44.12;99951.78;3142215;28;19935;-68
2023/09/12 06:31:52;;;;;;;;;;;;;;;20.17;43.95;99955.09;3143840;28;19928;-67
2023/09/12 06:33:25;;;;;;;;;;;;;;;20.28;43.92;99953.34;3154510;28;20399;-67
2023/09/12 06:34:56;;;;;;;;;;;;;;;20.37;43.71;99957.88;3148543;28;19934;-67
2023/09/12 06:36:29;;;;;;;;;;;;;;;20.45;43.71;99958.09;3147700;28;19974;-65
2023/09/12 06:38:00;;;;;;;;;;;;;;;20.55;43.67;99960.81;3144681;28;19935;-67
2023/09/12 06:39:31;;;;;;;;;;;;;;;20.64;43.59;99957.38;3142056;28;19928;-65
2023/09/12 06:41:03;;;;;;;;;;;;;;;20.76;43.36;99955.50;3154761;28;19935;-65
2023/09/12 06:42:35;;;;;;;;;;;;;;;20.84;43.26;99958.34;3154730;28;19935;-65
2023/09/12 06:44:06;;;;;;;;;;;;;;;20.86;43.43;99956.41;3142504;28;19932;-69
2023/09/12 06:45:38;;;;;;;;;;;;;;;20.91;43.34;99951.53;3141755;28;19928;-66
2023/09/12 06:47:10;;;;;;;;;;;;;;;20.96;43.30;99959.09;3140473;28;20432;-68
2023/09/12 06:48:43;;;;;;;;;;;;;;;21.09;43.57;99955.28;3142066;28;20409;-67
2023/09/12 06:50:14;;;;;;;;;;;;;;;21.25;43.44;99962.72;3138010;28;20016;-64
2023/09/12 06:51:45;;;;;;;;;;;;;;;21.46;43.44;99957.38;3133508;28;20393;-65
2023/09/12 06:53:16;;;;;;;;;;;;;;;21.72;43.27;99957.72;3136948;28;19929;-66
2023/09/12 06:54:47;;;;;;;;;;;;;;;21.88;43.30;99957.16;3148134;28;19971;-65
2023/09/12 06:56:18;;;;;;;;;;;;;;;22.13;43.06;99958.47;3149266;28;19959;-67
2023/09/12 06:57:50;;;;;;;;;;;;;;;22.39;43.10;99956.09;3141986;28;20110;-67
2023/09/12 06:59:20;;;;;;;;;;;;;;;22.71;42.40;99960.22;3145821;28;20363;-69
2023/09/12 07:00:52;;;;;;;;;;;;;;;23.02;42.23;99958.22;3145410;28;20008;-70
2023/09/12 07:02:32;;;;;;;;;;;;;;;23.39;41.89;99955.50;3144515;28;20379;-68
2023/09/12 07:04:09;;;;;;;;;;;;;;;23.84;41.60;99957.41;3129701;28;19933;-68
2023/09/12 07:05:41;;;;;;;;;;;;;;;24.18;40.88;99951.38;3141761;28;19954;-68
2023/09/12 07:07:20;;;;;;;;;;;;;;;24.19;39.92;99955.69;3141983;28;19971;-68
2023/09/12 07:08:51;;;;;;;;;;;;;;;24.36;40.14;99955.84;3141105;28;19932;-67
2023/09/12 07:10:26;;;;;;;;;;;;;;;24.51;39.36;99955.16;3146576;28;20467;-66
2023/09/12 07:12:05;;;;;;;;;;;;;;;24.67;39.60;99961.59;3149846;28;19993;-69
2023/09/12 07:13:37;;;;;;;;;;;;;;;24.88;39.26;99953.25;3151669;28;20410;-68
2023/09/12 07:15:21;;;;;;;;;;;;;;;25.14;38.86;99950.56;3154310;28;20465;-68
2023/09/12 07:19:11;;;;;;;;;;;;;;;25.48;37.45;99949.72;3135726;28;19955;-69
2023/09/12 07:20:45;;;;;;;;;;;;;;;25.60;37.26;99956.41;3142862;28;20643;-67
2023/09/12 07:22:20;;;;;;;;;;;;;;;25.91;37.14;99951.34;3148351;28;19932;-67
2023/09/12 07:24:11;;;;;;;;;;;;;;;26.22;36.73;99948.03;3142058;28;19951;-67
2023/09/12 07:25:52;;;;;;;;;;;;;;;26.49;36.55;99953.03;3151278;28;20367;-70
2023/09/12 07:27:26;;;;;;;;;;;;;;;26.81;35.82;99955.84;3146143;28;20015;-70
2023/09/12 07:29:07;;;;;;;;;;;;;;;26.92;35.99;99945.63;3148174;28;19979;-69
2023/09/12 07:30:44;;;;;;;;;;;;;;;27.19;35.76;99952.41;3140105;28;19932;-69
2023/09/12 07:34:19;;;;;;;;;;;;;;;28.06;34.85;99940.72;3138306;28;19935;-68
2023/09/12 07:36:03;;;;;;;;;;;;;;;28.16;34.26;99941.34;3148326;28;19961;-70
2023/09/12 07:37:34;;;;;;;;;;;;;;;28.31;33.97;99939.53;3141504;28;20389;-69
2023/09/12 07:39:12;;;;;;;;;;;;;;;28.61;34.18;99944.16;3137001;28;19929;-68
2023/09/12 07:40:43;;;;;;;;;;;;;;;28.78;33.78;99943.78;3144829;28;19928;-69
2023/09/12 07:42:18;;;;;;;;;;;;;;;28.82;33.44;99940.75;3143730;28;19984;-69
2023/09/12 07:43:52;;;;;;;;;;;;;;;29.07;33.17;99938.63;3153807;28;19962;-68
2023/09/12 07:45:41;;;;;;;;;;;;;;;29.35;33.25;99936.13;3146740;28;20073;-69
2023/09/12 07:47:21;;;;;;;;;;;;;;;29.78;32.75;99936.19;3149704;28;20009;-68
2023/09/12 07:48:56;;;;;;;;;;;;;;;30.19;32.25;99927.50;3144445;28;19929;-68
2023/09/12 07:50:45;;;;;;;;;;;;;;;30.52;31.77;99935.84;3138308;28;19936;-68
2023/09/12 07:52:18;;;;;;;;;;;;;;;30.76;31.25;99932.72;3139645;28;19928;-68
2023/09/12 07:53:50;;;;;;;;;;;;;;;30.85;31.36;99933.41;3151665;28;19928;-67
2023/09/12 07:55:21;;;;;;;;;;;;;;;30.97;30.91;99937.22;3152780;28;19982;-67
2023/09/12 07:56:53;;;;;;;;;;;;;;;30.97;30.51;99934.53;3144924;28;20392;-66
2023/09/12 07:58:23;;;;;;;;;;;;;;;30.98;30.27;99932.66;3143892;28;19939;-67
2023/09/12 08:00:16;;;;;;;;;;;;;;;31.07;30.52;99933.31;3151756;28;19928;-67
2023/09/12 08:01:48;;;;;;;;;;;;;;;31.17;30.01;99934.59;3137197;28;19985;-66
2023/09/12 08:03:20;;;;;;;;;;;;;;;31.37;30.24;99923.13;3150044;28;19939;-67
2023/09/12 08:04:50;;;;;;;;;;;;;;;31.73;29.95;99922.81;3140169;28;19928;-65